Time;durP1;ratioP1;P1;durP2;ratioP2;P2;SDS_P1;SDS_P2;PMS_P1;PMS_P2;Temp;Humidity;BMP_temperature;BMP_pressure;BME280_temperature;BME280_humidity;BME280_pressure;Samples;Min_cycle;Max_cycle;Signal;HPM_P1;HPM_P2
2023/05/10 00:00:48;;;;;;;5.95;5.45;;;13.70;99.90;;;;;;4989100;28;20062;-71
2023/05/10 00:03:14;;;;;;;10.20;5.13;;;13.70;99.90;;;;;;4975242;28;20078;-71
2023/05/10 00:05:40;;;;;;;5.85;5.35;;;13.60;99.90;;;;;;4974806;28;20080;-71
2023/05/10 00:08:05;;;;;;;7.25;4.82;;;13.70;99.90;;;;;;4990358;28;20100;-71
2023/05/10 00:10:31;;;;;;;6.50;5.88;;;13.60;99.90;;;;;;4990538;28;20101;-71
2023/05/10 00:12:57;;;;;;;6.28;5.55;;;13.70;99.90;;;;;;4990710;28;20049;-71
2023/05/10 00:15:23;;;;;;;6.03;5.53;;;13.60;99.90;;;;;;4959633;28;20046;-70
2023/05/10 00:17:48;;;;;;;6.57;6.07;;;13.70;99.90;;;;;;4990248;28;20484;-71
2023/05/10 00:20:14;;;;;;;6.63;6.03;;;13.70;99.90;;;;;;4975664;28;20054;-71
2023/05/10 00:22:40;;;;;;;6.72;6.13;;;13.70;99.90;;;;;;4990161;28;20484;-71
2023/05/10 00:25:06;;;;;;;7.10;5.47;;;13.70;99.90;;;;;;4991283;28;20477;-71
2023/05/10 00:27:32;;;;;;;5.85;5.32;;;13.70;99.90;;;;;;4990311;28;20563;-71
2023/05/10 00:29:58;;;;;;;8.32;6.18;;;13.70;99.90;;;;;;4990598;28;20074;-71
2023/05/10 00:32:23;;;;;;;7.22;6.07;;;13.70;99.90;;;;;;4974405;28;20136;-71
2023/05/10 00:34:49;;;;;;;6.95;6.35;;;13.60;99.90;;;;;;4990416;28;20139;-71
2023/05/10 00:37:15;;;;;;;6.78;6.18;;;13.60;99.90;;;;;;4991632;28;20058;-71
2023/05/10 00:39:40;;;;;;;8.45;6.15;;;13.60;99.90;;;;;;4990102;28;20480;-71
2023/05/10 00:42:06;;;;;;;9.75;7.80;;;13.60;99.90;;;;;;4974572;28;20046;-71
2023/05/10 00:44:32;;;;;;;6.60;6.07;;;13.60;99.90;;;;;;4973526;28;20084;-71
2023/05/10 00:46:59;;;;;;;8.57;6.38;;;13.60;99.90;;;;;;4974595;28;20092;-71
2023/05/10 00:49:25;;;;;;;8.20;6.65;;;13.60;99.90;;;;;;4990488;28;20058;-71
2023/05/10 00:51:50;;;;;;;7.35;6.72;;;13.60;99.90;;;;;;4974422;28;20501;-70
2023/05/10 00:54:17;;;;;;;6.63;6.03;;;13.60;99.90;;;;;;4974425;28;20591;-70
2023/05/10 00:56:48;;;;;;;5.15;4.75;;;13.60;99.90;;;;;;4990085;28;20050;-69
2023/05/10 00:59:17;;;;;;;4.15;3.78;;;13.50;99.90;;;;;;4991005;28;20049;-71
2023/05/10 01:01:46;;;;;;;3.17;2.97;;;13.60;99.90;;;;;;4989760;28;20092;-70
2023/05/10 01:04:13;;;;;;;2.70;2.60;;;13.50;99.90;;;;;;4974173;28;20049;-70
2023/05/10 01:06:43;;;;;;;2.78;2.67;;;13.40;99.90;;;;;;4990246;28;20056;-70
2023/05/10 01:09:09;;;;;;;2.85;2.75;;;13.40;99.90;;;;;;4990253;28;20042;-70
2023/05/10 01:11:37;;;;;;;3.72;3.53;;;13.30;99.90;;;;;;4990415;28;20128;-69
2023/05/10 01:14:04;;;;;;;3.88;3.67;;;13.30;99.90;;;;;;4989247;28;20046;-70
2023/05/10 01:16:40;;;;;;;5.32;3.30;;;13.20;99.90;;;;;;4991009;28;20100;-69
2023/05/10 01:19:26;;;;;;;3.38;3.17;;;13.20;99.90;;;;;;4988563;28;20500;-70
2023/05/10 01:21:56;;;;;;;5.28;3.33;;;13.10;99.90;;;;;;5008079;28;20500;-71
2023/05/10 01:25:07;;;;;;;3.97;3.72;;;13.00;99.90;;;;;;4973705;28;20620;-70
2023/05/10 01:28:07;;;;;;;4.57;4.20;;;13.00;99.90;;;;;;4989435;28;20404;-70
2023/05/10 01:30:51;;;;;;;4.30;3.90;;;13.00;99.90;;;;;;5007907;28;20510;-71
2023/05/10 01:33:29;;;;;;;4.40;4.10;;;12.90;99.90;;;;;;5005913;28;20129;-70
2023/05/10 01:36:13;;;;;;;3.90;3.65;;;12.80;99.90;;;;;;4989655;28;20042;-70
2023/05/10 01:38:52;;;;;;;3.90;3.65;;;12.80;99.90;;;;;;4990651;28;20067;-70
2023/05/10 01:41:30;;;;;;;3.60;3.40;;;12.80;99.90;;;;;;4973277;28;20059;-70
2023/05/10 01:44:05;;;;;;;3.40;3.10;;;12.70;99.90;;;;;;4989549;28;20195;-70
2023/05/10 01:46:37;;;;;;;3.85;3.13;;;12.70;99.90;;;;;;4990238;28;20034;-70
2023/05/10 01:49:08;;;;;;;3.53;3.33;;;12.70;99.90;;;;;;4989211;28;20078;-71
2023/05/10 01:51:51;;;;;;;4.03;3.72;;;12.60;99.90;;;;;;4990124;28;20076;-70
2023/05/10 01:54:19;;;;;;;3.28;3.08;;;12.60;99.90;;;;;;4988454;28;20061;-70
2023/05/10 01:56:50;;;;;;;7.80;3.88;;;12.60;99.90;;;;;;4973637;28;20060;-71
2023/05/10 01:59:19;;;;;;;6.38;4.03;;;12.60;99.90;;;;;;4989662;28;20056;-71
2023/05/10 02:01:46;;;;;;;4.95;4.47;;;12.60;99.90;;;;;;4988774;28;20498;-70
2023/05/10 02:04:16;;;;;;;6.45;4.38;;;12.60;99.90;;;;;;4989596;28;20095;-70
2023/05/10 02:06:43;;;;;;;5.25;3.92;;;12.60;99.90;;;;;;4972837;28;20049;-70
2023/05/10 02:09:10;;;;;;;4.13;3.83;;;12.50;99.90;;;;;;4990153;28;20392;-70
2023/05/10 02:11:38;;;;;;;3.90;3.70;;;12.50;99.90;;;;;;4989049;28;20081;-70
2023/05/10 02:14:09;;;;;;;4.78;3.75;;;12.50;99.90;;;;;;4973335;28;20123;-70
2023/05/10 02:16:36;;;;;;;5.25;4.05;;;12.50;99.90;;;;;;4990047;28;20116;-71
2023/05/10 02:19:03;;;;;;;3.72;3.50;;;12.50;99.90;;;;;;4972726;28;20393;-70
2023/05/10 02:21:30;;;;;;;4.20;3.80;;;12.50;99.90;;;;;;4973942;28;20042;-71
2023/05/10 02:23:58;;;;;;;4.38;3.95;;;12.50;99.90;;;;;;4988774;28;20050;-70
2023/05/10 02:26:25;;;;;;;6.93;3.78;;;12.50;99.90;;;;;;4973396;28;20552;-70
2023/05/10 02:28:53;;;;;;;3.90;3.67;;;12.50;99.90;;;;;;4989028;28;20046;-71
2023/05/10 02:31:19;;;;;;;3.80;3.50;;;12.50;99.90;;;;;;4989772;28;20054;-70
2023/05/10 02:33:46;;;;;;;3.60;3.40;;;12.50;99.90;;;;;;4993970;28;20421;-70
2023/05/10 02:36:13;;;;;;;4.10;3.80;;;12.50;99.90;;;;;;4991841;28;20046;-71
2023/05/10 02:38:40;;;;;;;3.85;3.60;;;12.50;99.90;;;;;;4993794;28;20074;-71
2023/05/10 02:41:08;;;;;;;7.25;3.83;;;12.50;99.90;;;;;;4992404;28;20049;-70
2023/05/10 02:43:35;;;;;;;4.63;4.22;;;12.50;99.90;;;;;;4977351;28;20104;-70
2023/05/10 02:46:01;;;;;;;3.83;3.53;;;12.50;99.90;;;;;;4992711;28;20046;-70
2023/05/10 02:48:28;;;;;;;4.10;3.80;;;12.50;99.90;;;;;;4992955;28;20080;-71
2023/05/10 02:50:59;;;;;;;4.15;3.75;;;12.50;99.90;;;;;;4993239;28;20045;-70
2023/05/10 02:53:31;;;;;;;4.32;3.95;;;12.50;99.90;;;;;;4992312;28;20074;-70
2023/05/10 02:56:00;;;;;;;3.38;3.17;;;12.50;99.90;;;;;;4993534;28;20145;-70
2023/05/10 02:58:26;;;;;;;3.33;3.13;;;12.50;99.90;;;;;;4975173;28;20050;-70
2023/05/10 03:00:52;;;;;;;3.22;3.03;;;12.50;99.90;;;;;;4977123;28;20300;-70
2023/05/10 03:03:18;;;;;;;3.30;3.10;;;12.50;99.90;;;;;;4991665;28;20046;-70
2023/05/10 03:05:43;;;;;;;3.42;3.22;;;12.40;99.90;;;;;;4993155;28;20124;-70
2023/05/10 03:08:09;;;;;;;3.97;3.78;;;12.30;99.90;;;;;;4976620;28;20046;-70
2023/05/10 03:11:10;;;;;;;3.70;3.38;;;12.30;99.90;;;;;;4991595;28;20049;-71
2023/05/10 03:14:06;;;;;;;3.50;3.30;;;12.40;99.90;;;;;;4953134;28;20109;-71
2023/05/10 03:16:52;;;;;;;3.83;3.58;;;12.40;99.90;;;;;;4967638;28;20046;-70
2023/05/10 03:19:36;;;;;;;5.65;3.20;;;12.30;99.90;;;;;;4991812;28;20534;-71
2023/05/10 03:22:08;;;;;;;3.83;3.55;;;12.30;99.90;;;;;;4993025;28;20133;-70
2023/05/10 03:24:35;;;;;;;4.13;3.88;;;12.30;99.90;;;;;;4974938;28;20042;-71
2023/05/10 03:27:02;;;;;;;4.07;3.80;;;12.30;99.90;;;;;;4976756;28;20124;-71
2023/05/10 03:29:30;;;;;;;3.80;3.50;;;12.30;99.90;;;;;;4991224;28;20054;-71
2023/05/10 03:31:59;;;;;;;4.18;3.97;;;12.30;99.90;;;;;;4992186;28;20058;-71
2023/05/10 03:34:25;;;;;;;3.85;3.58;;;12.30;99.90;;;;;;4976111;28;20125;-71
2023/05/10 03:36:51;;;;;;;4.20;3.90;;;12.20;99.90;;;;;;4991596;28;20049;-71
2023/05/10 03:39:16;;;;;;;4.30;4.00;;;12.30;99.90;;;;;;4992594;28;20046;-71
2023/05/10 03:41:42;;;;;;;4.60;4.22;;;12.30;99.90;;;;;;4990260;28;20050;-71
2023/05/10 03:44:08;;;;;;;5.68;4.20;;;12.30;99.90;;;;;;4976525;28;20042;-71
2023/05/10 03:46:33;;;;;;;4.57;3.95;;;12.30;99.90;;;;;;4991127;28;20073;-70
2023/05/10 03:48:59;;;;;;;3.47;3.28;;;12.30;99.90;;;;;;4992451;28;20484;-70
2023/05/10 03:51:27;;;;;;;4.55;4.25;;;12.30;99.90;;;;;;4991516;28;20160;-71
2023/05/10 03:53:56;;;;;;;4.10;3.80;;;12.30;99.90;;;;;;4975712;28;20129;-71
2023/05/10 03:56:22;;;;;;;4.00;3.70;;;12.30;99.90;;;;;;4992221;28;20042;-71
2023/05/10 03:58:48;;;;;;;6.22;3.83;;;12.20;99.90;;;;;;4990578;28;20057;-70
2023/05/10 04:01:14;;;;;;;5.53;3.95;;;12.30;99.90;;;;;;4991773;28;20237;-71
2023/05/10 04:03:40;;;;;;;4.15;3.85;;;12.30;99.90;;;;;;4973960;28;20045;-71
2023/05/10 04:06:07;;;;;;;4.07;3.78;;;12.20;99.90;;;;;;4991991;28;20046;-71
2023/05/10 04:08:33;;;;;;;4.22;3.90;;;12.30;99.90;;;;;;4974752;28;20057;-71
2023/05/10 04:11:10;;;;;;;5.88;4.68;;;12.20;99.90;;;;;;4958528;28;20042;-70
2023/05/10 04:13:36;;;;;;;5.75;5.20;;;12.20;99.90;;;;;;4991665;28;20050;-71
2023/05/10 04:16:01;;;;;;;4.72;4.32;;;12.30;99.90;;;;;;4974770;28;20045;-71
2023/05/10 04:18:27;;;;;;;6.45;4.93;;;12.20;99.90;;;;;;4975936;28;20128;-71
2023/05/10 04:20:53;;;;;;;6.00;5.32;;;12.30;99.90;;;;;;4973964;28;20405;-71
2023/05/10 04:23:18;;;;;;;5.68;5.28;;;12.30;99.90;;;;;;4975757;28;20589;-71
2023/05/10 04:25:44;;;;;;;6.00;5.40;;;12.30;99.90;;;;;;4990362;28;20080;-71
2023/05/10 04:28:10;;;;;;;6.32;5.72;;;12.30;99.90;;;;;;4959437;28;20046;-71
2023/05/10 04:30:35;;;;;;;6.38;5.53;;;12.30;99.90;;;;;;4974493;28;20050;-71
2023/05/10 04:33:04;;;;;;;6.22;5.43;;;12.30;99.90;;;;;;4989129;28;20100;-71
2023/05/10 04:35:30;;;;;;;6.13;5.53;;;12.30;99.90;;;;;;4991653;28;20108;-71
2023/05/10 04:37:55;;;;;;;7.20;6.13;;;12.40;99.90;;;;;;4989868;28;20085;-70
2023/05/10 04:40:21;;;;;;;6.07;5.47;;;12.40;99.90;;;;;;4991824;28;20103;-70
2023/05/10 04:42:47;;;;;;;6.95;5.82;;;12.40;99.90;;;;;;4957252;28;20046;-70
2023/05/10 04:45:14;;;;;;;7.63;5.75;;;12.30;99.90;;;;;;4991276;28;20133;-70
2023/05/10 04:47:40;;;;;;;6.90;6.05;;;12.30;99.90;;;;;;4990627;28;20136;-70
2023/05/10 04:50:07;;;;;;;6.53;5.75;;;12.30;99.90;;;;;;4989077;28;20050;-70
2023/05/10 04:52:33;;;;;;;7.28;6.38;;;12.30;99.90;;;;;;4958683;28;20052;-70
2023/05/10 04:54:58;;;;;;;6.88;6.18;;;12.40;99.90;;;;;;4973066;28;20547;-70
2023/05/10 04:57:24;;;;;;;7.32;5.70;;;12.30;99.90;;;;;;4990980;28;20046;-70
2023/05/10 04:59:51;;;;;;;7.88;6.85;;;12.30;99.90;;;;;;4989286;28;20050;-71
2023/05/10 05:02:16;;;;;;;7.43;6.55;;;12.30;99.90;;;;;;4974771;28;20053;-71
2023/05/10 05:04:42;;;;;;;9.25;7.28;;;12.30;99.90;;;;;;4989569;28;20050;-71
2023/05/10 05:07:08;;;;;;;16.13;7.88;;;12.30;99.90;;;;;;4990254;28;20085;-70
2023/05/10 05:09:33;;;;;;;16.00;8.38;;;12.30;99.90;;;;;;4974417;28;20045;-70
2023/05/10 05:11:59;;;;;;;13.13;7.88;;;12.30;99.90;;;;;;4989248;28;20065;-71
2023/05/10 05:14:25;;;;;;;16.15;7.63;;;12.30;99.90;;;;;;4974638;28;20048;-70
2023/05/10 05:16:52;;;;;;;12.07;7.55;;;12.30;99.90;;;;;;4971315;28;20041;-70
2023/05/10 05:19:18;;;;;;;6.53;5.68;;;12.30;99.90;;;;;;4987169;28;20096;-70
2023/05/10 05:21:44;;;;;;;11.13;7.80;;;12.30;99.90;;;;;;4988812;28;20147;-69
2023/05/10 05:24:11;;;;;;;7.82;6.00;;;12.20;99.90;;;;;;4974483;28;20115;-70
2023/05/10 05:26:37;;;;;;;8.15;5.00;;;12.20;99.90;;;;;;4974009;28;20042;-70
2023/05/10 05:29:03;;;;;;;8.63;4.72;;;12.20;99.90;;;;;;4989410;28;20046;-70
2023/05/10 05:31:29;;;;;;;5.15;4.57;;;12.30;99.90;;;;;;5007934;28;20060;-70
2023/05/10 05:33:55;;;;;;;5.18;4.68;;;12.20;99.90;;;;;;4956218;28;20054;-71
2023/05/10 05:36:21;;;;;;;5.80;5.07;;;12.20;99.90;;;;;;5008091;28;20132;-70
2023/05/10 05:38:47;;;;;;;5.53;4.40;;;12.30;99.90;;;;;;4988096;28;20085;-70
2023/05/10 05:41:13;;;;;;;7.97;5.15;;;12.40;99.90;;;;;;4990353;28;20119;-70
2023/05/10 05:43:39;;;;;;;4.20;3.80;;;12.30;99.90;;;;;;4989360;28;20505;-70
2023/05/10 05:46:06;;;;;;;4.40;3.97;;;12.40;99.90;;;;;;4989867;28;20132;-70
2023/05/10 05:48:31;;;;;;;5.97;3.90;;;12.40;99.90;;;;;;4973347;28;20480;-70
2023/05/10 05:50:57;;;;;;;4.45;3.72;;;12.40;99.90;;;;;;4988610;28;20068;-70
2023/05/10 05:53:23;;;;;;;4.28;3.80;;;12.40;99.90;;;;;;4989897;28;20041;-70
2023/05/10 05:55:57;;;;;;;5.28;3.00;;;12.40;99.90;;;;;;4972481;28;20132;-70
2023/05/10 05:58:24;;;;;;;2.20;2.10;;;12.40;99.90;;;;;;4973441;28;20064;-70
2023/05/10 06:00:50;;;;;;;2.30;2.10;;;12.40;99.90;;;;;;4956419;28;20073;-70
2023/05/10 06:03:16;;;;;;;7.80;2.20;;;12.40;99.90;;;;;;4989628;28;20058;-70
2023/05/10 06:05:41;;;;;;;2.15;1.95;;;12.50;99.90;;;;;;4989809;28;20038;-70
2023/05/10 06:08:07;;;;;;;3.40;3.10;;;12.50;99.90;;;;;;4972725;28;20073;-70
2023/05/10 06:10:33;;;;;;;2.30;2.10;;;12.50;99.90;;;;;;4972192;28;20419;-70
2023/05/10 06:12:59;;;;;;;5.47;1.98;;;12.50;99.90;;;;;;4987703;28;20135;-70
2023/05/10 06:15:25;;;;;;;2.60;2.28;;;12.50;99.90;;;;;;5007675;28;20053;-70
2023/05/10 06:17:51;;;;;;;1.60;1.50;;;12.40;99.90;;;;;;4988275;28;20053;-70
2023/05/10 06:20:17;;;;;;;1.63;1.52;;;12.40;99.90;;;;;;4989506;28;20492;-70
2023/05/10 06:22:43;;;;;;;1.95;1.40;;;12.40;99.90;;;;;;4973040;28;20061;-71
2023/05/10 06:25:09;;;;;;;1.27;1.17;;;12.50;99.90;;;;;;4994015;28;20076;-70
2023/05/10 06:27:35;;;;;;;1.38;1.27;;;12.50;99.90;;;;;;4978533;28;20381;-70
2023/05/10 06:30:02;;;;;;;1.42;1.10;;;12.40;99.90;;;;;;4971504;28;20108;-71
2023/05/10 06:32:28;;;;;;;1.50;0.93;;;12.50;99.90;;;;;;4988813;28;20093;-70
2023/05/10 06:34:54;;;;;;;3.78;1.10;;;12.50;99.90;;;;;;5005115;28;20050;-70
2023/05/10 06:37:20;;;;;;;0.80;0.80;;;12.50;99.90;;;;;;4974099;28;20454;-70
2023/05/10 06:39:45;;;;;;;1.05;1.00;;;12.60;99.90;;;;;;5005658;28;20092;-70
2023/05/10 06:42:11;;;;;;;0.85;0.77;;;12.60;99.90;;;;;;4986764;28;20058;-71
2023/05/10 06:44:37;;;;;;;2.58;0.80;;;12.50;99.90;;;;;;4988485;28;20053;-70
2023/05/10 06:47:02;;;;;;;1.30;0.88;;;12.50;99.90;;;;;;4988238;28;20034;-71
2023/05/10 06:49:28;;;;;;;0.80;0.80;;;12.50;99.90;;;;;;4988259;28;20492;-71
2023/05/10 06:51:55;;;;;;;0.75;0.75;;;12.50;99.90;;;;;;4986633;28;20046;-70
2023/05/10 06:54:21;;;;;;;0.80;0.80;;;12.50;99.90;;;;;;4989206;28;20042;-71
2023/05/10 06:56:47;;;;;;;1.60;0.80;;;12.60;99.90;;;;;;4984813;28;20038;-70
2023/05/10 06:59:13;;;;;;;0.85;0.50;;;12.60;99.90;;;;;;4970029;28;20046;-70
2023/05/10 07:01:39;;;;;;;0.70;0.70;;;12.60;99.90;;;;;;4995631;28;20050;-70
2023/05/10 07:04:05;;;;;;;0.60;0.60;;;12.70;99.90;;;;;;4986461;28;20081;-70
2023/05/10 07:06:30;;;;;;;0.75;0.55;;;12.70;99.90;;;;;;4989300;28;20085;-70
2023/05/10 07:08:56;;;;;;;3.63;0.75;;;12.70;99.90;;;;;;4987406;28;20088;-70
2023/05/10 07:11:22;;;;;;;0.40;0.40;;;12.70;99.90;;;;;;4973357;28;20085;-69
2023/05/10 07:13:48;;;;;;;0.30;0.30;;;12.60;99.90;;;;;;4969762;28;20080;-70
2023/05/10 07:16:13;;;;;;;0.20;0.20;;;12.60;99.90;;;;;;4982477;28;20053;-70
2023/05/10 07:18:39;;;;;;;0.30;0.20;;;12.60;99.90;;;;;;4954782;28;20058;-71
2023/05/10 07:21:05;;;;;;;0.20;0.20;;;12.60;99.90;;;;;;4973122;28;20046;-70
2023/05/10 07:23:31;;;;;;;0.55;0.20;;;12.60;99.90;;;;;;4991831;28;20124;-70
2023/05/10 07:25:57;;;;;;;0.38;0.30;;;12.70;99.90;;;;;;4973617;28;20060;-70
2023/05/10 07:28:24;;;;;;;0.75;0.40;;;12.60;99.90;;;;;;4966306;28;20405;-70
2023/05/10 07:30:50;;;;;;;0.75;0.35;;;12.50;99.90;;;;;;4989096;28;20061;-70
2023/05/10 07:33:16;;;;;;;1.40;1.05;;;12.50;99.90;;;;;;4990935;28;20070;-71
2023/05/10 07:35:42;;;;;;;1.38;1.27;;;12.60;99.90;;;;;;4990709;28;20381;-70
2023/05/10 07:38:08;;;;;;;2.95;1.20;;;12.60;99.90;;;;;;4991711;28;20154;-70
2023/05/10 07:40:33;;;;;;;2.60;0.95;;;12.60;99.90;;;;;;4991441;28;20141;-70
2023/05/10 07:43:01;;;;;;;1.02;0.88;;;12.50;99.90;;;;;;4990954;28;20042;-70
2023/05/10 07:45:27;;;;;;;3.88;3.58;;;12.50;99.90;;;;;;4981411;28;20050;-70
2023/05/10 07:47:53;;;;;;;5.68;4.43;;;12.60;99.90;;;;;;4994149;28;20092;-71
2023/05/10 07:50:19;;;;;;;9.68;6.82;;;12.50;99.90;;;;;;4983111;28;20045;-70
2023/05/10 07:52:44;;;;;;;5.80;4.97;;;12.40;99.90;;;;;;4959873;28;20385;-70
2023/05/10 07:55:10;;;;;;;7.40;4.78;;;12.30;99.90;;;;;;4983704;28;20049;-70
2023/05/10 07:57:38;;;;;;;3.92;3.53;;;12.40;99.90;;;;;;4990660;28;20048;-70
2023/05/10 08:00:05;;;;;;;4.40;3.17;;;12.30;99.90;;;;;;4990785;28;20042;-70
2023/05/10 08:02:30;;;;;;;6.28;3.90;;;12.30;99.90;;;;;;4991672;28;20045;-71
2023/05/10 08:04:56;;;;;;;2.72;2.53;;;12.30;99.90;;;;;;4973774;28;20440;-70
2023/05/10 08:07:24;;;;;;;6.53;4.30;;;12.30;99.90;;;;;;4994238;28;20049;-70
2023/05/10 08:09:50;;;;;;;4.85;4.45;;;12.30;99.90;;;;;;4995136;28;20392;-70
2023/05/10 08:12:16;;;;;;;5.20;4.70;;;12.20;99.90;;;;;;4991374;28;20046;-70
2023/05/10 08:14:42;;;;;;;5.22;3.92;;;12.20;99.90;;;;;;4990437;28;20131;-70
2023/05/10 08:17:08;;;;;;;7.25;4.80;;;12.20;99.90;;;;;;4991140;28;20145;-70
2023/05/10 08:19:33;;;;;;;7.55;5.90;;;12.30;99.90;;;;;;4990549;28;20044;-70
2023/05/10 08:21:59;;;;;;;6.78;6.00;;;12.20;99.90;;;;;;4991230;28;20038;-70
2023/05/10 08:24:25;;;;;;;7.80;6.55;;;12.30;99.90;;;;;;4973921;28;20473;-70
2023/05/10 08:26:51;;;;;;;10.48;9.25;;;12.20;99.90;;;;;;5007700;28;20125;-70
2023/05/10 08:29:16;;;;;;;8.80;7.90;;;12.20;99.90;;;;;;4987203;28;20056;-71
2023/05/10 08:31:42;;;;;;;9.23;7.13;;;12.20;99.90;;;;;;4989140;28;20455;-71
2023/05/10 08:34:08;;;;;;;14.20;10.13;;;12.20;99.90;;;;;;4974743;28;20057;-70
2023/05/10 08:36:33;;;;;;;8.60;7.55;;;12.20;99.90;;;;;;4989830;28;20037;-71
2023/05/10 08:38:59;;;;;;;11.48;10.00;;;12.20;99.90;;;;;;4989323;28;20054;-70
2023/05/10 08:41:25;;;;;;;13.40;11.32;;;12.30;99.90;;;;;;4985026;28;20718;-71
2023/05/10 08:43:53;;;;;;;14.77;9.48;;;12.30;99.90;;;;;;5003935;28;20096;-70
2023/05/10 08:46:21;;;;;;;15.73;11.63;;;12.30;99.90;;;;;;4974592;28;20141;-71
2023/05/10 08:48:49;;;;;;;15.88;11.80;;;12.40;99.90;;;;;;4986719;28;20046;-71
2023/05/10 08:51:21;;;;;;;14.27;11.27;;;12.30;99.90;;;;;;4989997;28;20516;-71
2023/05/10 08:53:47;;;;;;;12.82;11.35;;;12.30;99.90;;;;;;4980048;28;20504;-71
2023/05/10 08:56:15;;;;;;;13.23;10.38;;;12.40;99.90;;;;;;4988293;28;20057;-71
2023/05/10 08:58:41;;;;;;;15.25;9.57;;;12.40;99.90;;;;;;4990355;28;20053;-71
2023/05/10 09:01:08;;;;;;;15.60;9.65;;;12.40;99.90;;;;;;4989151;28;20046;-71
2023/05/10 09:03:34;;;;;;;8.80;6.82;;;12.30;99.90;;;;;;4990760;28;20038;-71
2023/05/10 09:06:00;;;;;;;13.75;9.77;;;12.40;99.90;;;;;;4989577;28;20137;-71
2023/05/10 09:08:27;;;;;;;13.32;10.68;;;12.40;99.90;;;;;;5007939;28;20485;-70
2023/05/10 09:10:56;;;;;;;12.95;9.65;;;12.40;99.90;;;;;;4989391;28;20476;-71
2023/05/10 09:13:23;;;;;;;8.68;7.53;;;12.50;99.90;;;;;;4968116;28;20054;-72
2023/05/10 09:15:50;;;;;;;5.45;4.95;;;12.50;99.90;;;;;;4985540;28;20042;-70
2023/05/10 09:18:16;;;;;;;9.95;8.90;;;12.50;99.90;;;;;;4987975;28;20393;-71
2023/05/10 09:20:42;;;;;;;11.85;10.40;;;12.50;99.90;;;;;;4990649;28;20080;-72
2023/05/10 09:23:07;;;;;;;5.75;5.13;;;12.50;99.90;;;;;;4975294;28;20500;-71
2023/05/10 09:25:33;;;;;;;6.82;6.18;;;12.50;99.90;;;;;;4990087;28;20061;-71
2023/05/10 09:27:59;;;;;;;7.65;6.75;;;12.50;99.90;;;;;;4971059;28;20124;-70
2023/05/10 09:30:29;;;;;;;12.80;9.50;;;12.50;99.90;;;;;;4964814;28;20139;-71
2023/05/10 09:32:57;;;;;;;7.30;5.78;;;12.50;99.90;;;;;;4972028;28;20065;-71
2023/05/10 09:35:25;;;;;;;6.97;5.18;;;12.40;99.90;;;;;;4989311;28;20053;-71
2023/05/10 09:37:53;;;;;;;17.88;9.63;;;12.40;99.90;;;;;;4986957;28;20054;-71
2023/05/10 09:40:20;;;;;;;4.80;4.40;;;12.40;99.90;;;;;;4971380;28;20455;-71
2023/05/10 09:42:57;;;;;;;8.85;8.05;;;12.40;99.90;;;;;;4985473;28;20049;-71
2023/05/10 09:45:25;;;;;;;7.18;6.47;;;12.40;99.90;;;;;;4987879;28;20395;-71
2023/05/10 09:47:51;;;;;;;9.18;8.05;;;12.40;99.90;;;;;;4973598;28;20081;-71
2023/05/10 09:50:17;;;;;;;12.07;10.05;;;12.40;99.90;;;;;;4977576;28;20080;-71
2023/05/10 09:52:51;;;;;;;7.25;6.45;;;12.50;99.90;;;;;;4973280;28;20096;-72
2023/05/10 09:55:25;;;;;;;5.55;5.00;;;12.50;99.90;;;;;;4987729;28;20057;-71
2023/05/10 09:58:00;;;;;;;4.60;4.20;;;12.60;99.90;;;;;;4988472;28;20583;-71
2023/05/10 10:00:27;;;;;;;3.42;3.22;;;12.70;99.90;;;;;;4972647;28;20054;-71
2023/05/10 10:02:59;;;;;;;4.32;3.92;;;12.70;99.90;;;;;;4972124;28;20057;-72
2023/05/10 10:05:45;;;;;;;4.05;3.72;;;12.60;99.90;;;;;;4988454;28;20048;-71
2023/05/10 10:08:12;;;;;;;4.55;2.95;;;12.70;99.90;;;;;;4988339;28;20389;-71
2023/05/10 10:10:40;;;;;;;6.45;5.85;;;12.70;99.90;;;;;;4987644;28;20058;-71
2023/05/10 10:13:06;;;;;;;7.97;7.18;;;12.80;99.90;;;;;;4973615;28;20440;-72
2023/05/10 10:15:33;;;;;;;11.50;8.65;;;12.90;99.90;;;;;;4971439;28;20140;-72
2023/05/10 10:17:59;;;;;;;12.60;9.30;;;12.90;99.90;;;;;;4989670;28;20061;-71
2023/05/10 10:20:26;;;;;;;8.70;7.60;;;12.80;99.90;;;;;;4971718;28;20049;-72
2023/05/10 10:22:52;;;;;;;7.75;6.97;;;12.90;99.90;;;;;;4973089;28;20056;-71
2023/05/10 10:25:19;;;;;;;3.67;3.38;;;12.80;99.90;;;;;;5006246;28;20061;-71
2023/05/10 10:27:51;;;;;;;5.57;4.35;;;12.80;99.90;;;;;;4988334;28;20514;-71
2023/05/10 10:30:33;;;;;;;4.72;4.22;;;12.90;99.90;;;;;;4984870;28;20062;-72
2023/05/10 10:33:17;;;;;;;5.90;4.88;;;12.90;99.90;;;;;;4983942;28;20125;-71
2023/05/10 10:35:46;;;;;;;15.20;8.35;;;12.90;99.90;;;;;;4968875;28;20039;-72
2023/05/10 10:38:13;;;;;;;6.65;5.55;;;13.00;99.90;;;;;;4953753;28;20357;-72
2023/05/10 10:40:39;;;;;;;6.00;5.40;;;13.00;99.90;;;;;;4961766;28;20065;-71
2023/05/10 10:43:25;;;;;;;9.57;8.60;;;12.90;99.90;;;;;;4970052;28;20051;-72
2023/05/10 10:46:18;;;;;;;8.40;7.03;;;12.90;99.90;;;;;;4984528;28;20046;-72
2023/05/10 10:49:07;;;;;;;6.03;5.43;;;13.00;99.90;;;;;;4974468;28;20035;-71
2023/05/10 10:51:37;;;;;;;8.15;7.28;;;13.10;99.90;;;;;;4981518;28;20109;-71
2023/05/10 10:54:10;;;;;;;6.45;5.85;;;13.10;99.90;;;;;;4968421;28;20076;-71
2023/05/10 10:56:36;;;;;;;5.78;4.93;;;13.10;99.90;;;;;;4968772;28;20485;-70
2023/05/10 10:59:02;;;;;;;5.22;3.65;;;13.00;99.90;;;;;;4983509;28;20054;-72
2023/05/10 11:01:34;;;;;;;2.65;2.45;;;13.10;99.90;;;;;;4970064;28;20042;-73
2023/05/10 11:04:02;;;;;;;3.17;2.75;;;13.20;99.90;;;;;;4950152;28;20388;-74
2023/05/10 11:06:35;;;;;;;3.30;3.00;;;13.30;99.90;;;;;;4987960;28;20132;-71
2023/05/10 11:09:08;;;;;;;4.50;4.10;;;13.30;99.90;;;;;;4987363;28;20125;-72
2023/05/10 11:11:35;;;;;;;3.10;2.80;;;13.40;99.90;;;;;;4988064;28;20093;-71
2023/05/10 11:14:06;;;;;;;5.40;4.90;;;13.40;99.90;;;;;;4986351;28;20051;-71
2023/05/10 11:16:44;;;;;;;3.95;2.85;;;13.30;99.90;;;;;;4987704;28;20508;-73
2023/05/10 11:19:12;;;;;;;2.53;2.13;;;13.20;99.90;;;;;;4985165;28;20130;-72
2023/05/10 11:22:08;;;;;;;1.50;1.40;;;13.30;99.90;;;;;;4972726;28;20046;-72
2023/05/10 11:24:35;;;;;;;1.75;1.65;;;13.30;99.90;;;;;;4982859;28;20065;-72
2023/05/10 11:27:01;;;;;;;2.65;2.30;;;13.30;99.90;;;;;;4973094;28;20057;-72
2023/05/10 11:29:27;;;;;;;4.13;3.58;;;13.30;99.90;;;;;;4967367;28;20047;-72
2023/05/10 11:31:56;;;;;;;2.22;1.80;;;13.40;99.90;;;;;;4974217;28;20093;-72
2023/05/10 11:34:30;;;;;;;4.73;3.27;;;13.50;99.90;;;;;;4989006;28;20035;-72
2023/05/10 11:36:57;;;;;;;1.92;1.83;;;13.50;99.90;;;;;;4974528;28;20033;-73
2023/05/10 11:39:27;;;;;;;1.83;1.70;;;13.60;99.90;;;;;;4956239;28;20575;-72
2023/05/10 11:41:54;;;;;;;2.55;1.70;;;13.60;99.90;;;;;;4997006;28;20058;-72
2023/05/10 11:44:20;;;;;;;1.38;1.27;;;13.70;99.90;;;;;;4990250;28;20512;-73
2023/05/10 11:46:45;;;;;;;1.27;1.17;;;13.80;99.90;;;;;;4974026;28;20049;-73
2023/05/10 11:49:13;;;;;;;1.92;1.80;;;13.90;99.90;;;;;;4990826;28;20546;-73
2023/05/10 11:51:39;;;;;;;0.77;0.77;;;14.00;99.90;;;;;;5004163;28;20057;-72
2023/05/10 11:54:10;;;;;;;1.67;1.52;;;14.00;99.90;;;;;;4974588;28;20045;-73
2023/05/10 11:56:37;;;;;;;0.90;0.90;;;14.00;99.90;;;;;;4991019;28;20057;-73
2023/05/10 11:59:03;;;;;;;1.20;0.80;;;14.10;99.90;;;;;;4990274;28;20408;-73
2023/05/10 12:01:30;;;;;;;0.50;0.50;;;14.20;99.90;;;;;;4991242;28;20053;-74
2023/05/10 12:04:00;;;;;;;0.95;0.35;;;14.10;99.90;;;;;;4999391;28;20422;-73
2023/05/10 12:06:32;;;;;;;0.50;0.50;;;14.10;99.90;;;;;;4992410;28;20121;-73
2023/05/10 12:08:58;;;;;;;0.88;0.57;;;14.00;99.90;;;;;;4980702;28;20053;-73
2023/05/10 12:11:28;;;;;;;1.13;0.60;;;14.00;99.90;;;;;;4991087;28;20038;-73
2023/05/10 12:13:55;;;;;;;1.52;1.25;;;14.00;99.90;;;;;;4975415;28;20633;-73
2023/05/10 12:16:27;;;;;;;1.55;1.45;;;13.90;99.90;;;;;;4990494;28;20050;-72
2023/05/10 12:18:59;;;;;;;1.50;1.40;;;13.90;99.90;;;;;;4991517;28;20750;-73
2023/05/10 12:21:25;;;;;;;1.55;1.45;;;13.90;99.90;;;;;;4990510;28;20049;-73
2023/05/10 12:23:58;;;;;;;1.50;1.40;;;13.90;99.90;;;;;;4991307;28;20046;-73
2023/05/10 12:26:26;;;;;;;1.88;1.40;;;14.00;99.90;;;;;;4975189;28;20046;-73
2023/05/10 12:28:53;;;;;;;3.08;1.60;;;14.10;99.90;;;;;;4990123;28;20041;-73
2023/05/10 12:31:19;;;;;;;3.38;1.77;;;14.20;99.90;;;;;;4971726;28;20054;-73
2023/05/10 12:33:47;;;;;;;3.92;1.63;;;14.30;99.90;;;;;;4986493;28;20045;-73
2023/05/10 12:36:14;;;;;;;2.60;2.40;;;14.40;99.90;;;;;;4988535;28;20046;-74
2023/05/10 12:38:42;;;;;;;8.63;3.75;;;14.30;99.90;;;;;;4986702;28;20490;-73
2023/05/10 12:41:10;;;;;;;2.80;2.50;;;14.30;99.90;;;;;;4987950;28;20483;-72
2023/05/10 12:43:37;;;;;;;3.25;2.63;;;14.30;99.90;;;;;;4971426;28;20166;-71
2023/05/10 12:46:07;;;;;;;6.80;3.72;;;14.30;99.90;;;;;;4987423;28;20081;-73
2023/05/10 12:48:33;;;;;;;;;;;14.30;99.90;;;;;;4972403;28;20053;-74
2023/05/10 12:51:00;;;;;;;8.98;3.10;;;14.50;99.90;;;;;;4985851;28;19921;-74